createdAt,value
2022-11-08T00:02:25.907Z,3.38
2022-11-08T00:04:52.914Z,2.30
2022-11-08T00:07:38.586Z,2.75
2022-11-08T00:10:24.941Z,3.15
2022-11-08T00:13:10.363Z,3.03
2022-11-08T00:15:38.847Z,3.30
2022-11-08T00:18:07.290Z,3.25
2022-11-08T00:20:34.573Z,3.15
2022-11-08T00:23:01.477Z,3.50
2022-11-08T00:25:28.366Z,3.67
2022-11-08T00:27:55.260Z,3.33
2022-11-08T00:30:22.082Z,2.95
2022-11-08T00:32:49.012Z,3.10
2022-11-08T00:35:16.181Z,3.53
2022-11-08T00:37:43.102Z,3.28
2022-11-08T00:40:10.580Z,2.70
2022-11-08T00:42:37.493Z,3.17
2022-11-08T00:45:05.028Z,3.47
2022-11-08T00:47:31.887Z,4.25
2022-11-08T00:49:58.770Z,2.85
2022-11-08T00:52:25.680Z,2.70
2022-11-08T00:54:52.517Z,4.75
2022-11-08T00:57:22.305Z,3.67
2022-11-08T00:59:58.013Z,3.67
2022-11-08T01:02:25.158Z,3.15
2022-11-08T01:04:52.031Z,3.72
2022-11-08T01:07:18.943Z,2.55
2022-11-08T01:09:45.877Z,3.97
2022-11-08T01:12:12.719Z,6.63
2022-11-08T01:14:39.562Z,3.03
2022-11-08T01:17:06.404Z,2.60
2022-11-08T01:19:33.428Z,3.55
2022-11-08T01:22:00.638Z,3.10
2022-11-08T01:24:27.489Z,2.22
2022-11-08T01:26:54.412Z,3.13
2022-11-08T01:29:21.315Z,2.85
2022-11-08T01:31:48.226Z,3.03
2022-11-08T01:34:15.089Z,3.67
2022-11-08T01:36:41.959Z,2.80
2022-11-08T01:39:08.886Z,2.67
2022-11-08T01:41:35.752Z,3.22
2022-11-08T01:44:02.568Z,3.40
2022-11-08T01:46:38.815Z,3.45
2022-11-08T01:49:11.392Z,2.55
2022-11-08T01:51:50.320Z,3.20
2022-11-08T01:54:42.588Z,3.25
2022-11-08T01:57:13.809Z,3.65
2022-11-08T01:59:44.634Z,3.53
2022-11-08T02:02:12.418Z,4.03
2022-11-08T02:04:41.227Z,3.35
2022-11-08T02:07:09.119Z,2.55
2022-11-08T02:09:38.883Z,4.22
2022-11-08T02:12:07.816Z,4.05
2022-11-08T02:14:37.014Z,2.53
2022-11-08T02:17:04.751Z,2.90
2022-11-08T02:19:45.479Z,3.05
2022-11-08T02:22:35.003Z,2.92
2022-11-08T02:25:02.816Z,3.00
2022-11-08T02:27:29.661Z,3.38
2022-11-08T02:29:56.991Z,3.00
2022-11-08T02:32:24.067Z,3.35
2022-11-08T02:34:56.109Z,3.60
2022-11-08T02:37:25.581Z,3.30
2022-11-08T02:39:52.470Z,3.40
2022-11-08T02:42:20.814Z,4.07
2022-11-08T02:44:47.908Z,3.50
2022-11-08T02:47:15.739Z,3.58
2022-11-08T02:49:42.844Z,3.13
2022-11-08T02:52:09.885Z,3.17
2022-11-08T02:54:36.871Z,3.40
2022-11-08T02:57:03.741Z,3.58
2022-11-08T02:59:30.645Z,4.53
2022-11-08T03:01:57.585Z,3.65
2022-11-08T03:04:24.674Z,3.20
2022-11-08T03:06:51.584Z,3.20
2022-11-08T03:09:18.453Z,4.25
2022-11-08T03:11:45.317Z,4.03
2022-11-08T03:14:12.223Z,4.68
2022-11-08T03:16:39.067Z,4.47
2022-11-08T03:19:06.039Z,3.92
2022-11-08T03:21:35.585Z,5.20
2022-11-08T03:24:02.532Z,4.20
2022-11-08T03:26:29.413Z,4.85
2022-11-08T03:28:56.247Z,5.10
2022-11-08T03:31:23.133Z,3.60
2022-11-08T03:33:49.977Z,4.22
2022-11-08T03:36:16.808Z,3.83
2022-11-08T03:38:43.643Z,3.15
2022-11-08T03:41:10.481Z,3.33
2022-11-08T03:43:37.338Z,3.53
2022-11-08T03:46:04.255Z,2.75
2022-11-08T03:48:31.119Z,4.20
2022-11-08T03:50:57.977Z,3.40
2022-11-08T03:53:24.887Z,3.35
2022-11-08T03:55:51.789Z,2.72
2022-11-08T03:58:18.842Z,3.60
2022-11-08T04:00:46.937Z,3.90
2022-11-08T04:03:13.814Z,4.20
2022-11-08T04:05:40.677Z,3.30
2022-11-08T04:08:07.619Z,3.10
2022-11-08T04:10:34.755Z,3.92
2022-11-08T04:13:20.948Z,3.92
2022-11-08T04:15:53.792Z,5.60
2022-11-08T04:18:39.291Z,3.28
2022-11-08T04:21:24.294Z,3.53
2022-11-08T04:23:52.624Z,3.38
2022-11-08T04:26:21.542Z,3.45
2022-11-08T04:28:48.429Z,6.38
2022-11-08T04:31:18.520Z,3.50
2022-11-08T04:33:45.754Z,3.78
2022-11-08T04:36:15.944Z,3.60
2022-11-08T04:38:43.109Z,3.47
2022-11-08T04:41:12.860Z,4.00
2022-11-08T04:43:40.243Z,4.22
2022-11-08T04:46:15.374Z,3.00
2022-11-08T04:48:43.427Z,3.63
2022-11-08T04:51:11.914Z,4.25
2022-11-08T04:53:38.796Z,3.85
2022-11-08T04:56:07.876Z,3.47
2022-11-08T04:58:37.187Z,2.90
2022-11-08T05:01:05.157Z,2.72
2022-11-08T05:03:32.255Z,3.55
2022-11-08T05:06:10.111Z,5.00
2022-11-08T05:08:37.278Z,3.75
2022-11-08T05:11:06.471Z,5.95
2022-11-08T05:13:34.051Z,2.97
2022-11-08T05:16:03.291Z,3.22
2022-11-08T05:18:31.808Z,3.90
2022-11-08T05:21:18.590Z,6.20
2022-11-08T05:23:47.117Z,3.78
2022-11-08T05:26:14.906Z,4.25
2022-11-08T05:28:41.785Z,9.27
2022-11-08T05:31:09.301Z,3.67
2022-11-08T05:33:36.239Z,6.40
2022-11-08T05:36:06.236Z,5.43
2022-11-08T05:38:33.701Z,5.65
2022-11-08T05:41:18.569Z,5.45
2022-11-08T05:43:47.002Z,4.22
2022-11-08T05:46:14.330Z,4.47
2022-11-08T05:48:43.003Z,5.18
2022-11-08T05:51:12.188Z,4.60
2022-11-08T05:53:40.096Z,4.68
2022-11-08T05:56:07.806Z,5.13
2022-11-08T05:58:35.929Z,4.30
2022-11-08T06:01:11.464Z,4.22
2022-11-08T06:03:38.635Z,4.78
2022-11-08T06:06:08.834Z,5.25
2022-11-08T06:08:36.300Z,4.22
2022-11-08T06:11:11.382Z,4.53
2022-11-08T06:13:39.446Z,3.88
2022-11-08T06:16:09.079Z,4.53
2022-11-08T06:18:36.769Z,5.25
2022-11-08T06:21:05.646Z,5.70
2022-11-08T06:23:33.426Z,4.53
2022-11-08T06:26:01.064Z,5.53
2022-11-08T06:28:28.043Z,4.57
2022-11-08T06:30:54.959Z,6.00
2022-11-08T06:33:22.162Z,5.07
2022-11-08T06:35:49.244Z,5.95
2022-11-08T06:38:16.083Z,4.30
2022-11-08T06:40:43.170Z,4.88
2022-11-08T06:43:18.012Z,6.70
2022-11-08T06:45:46.520Z,4.72
2022-11-08T06:48:13.511Z,4.72
2022-11-08T06:50:43.311Z,6.40
2022-11-08T06:53:13.463Z,4.10
2022-11-08T06:55:40.470Z,4.97
2022-11-08T06:58:07.350Z,5.07
2022-11-08T07:00:34.286Z,5.50
2022-11-08T07:03:03.555Z,5.80
2022-11-08T07:05:32.589Z,5.27
2022-11-08T07:08:00.342Z,4.70
2022-11-08T07:10:30.515Z,5.60
2022-11-08T07:13:01.587Z,4.22
2022-11-08T07:15:29.186Z,4.97
2022-11-08T07:18:04.124Z,5.63
2022-11-08T07:20:31.587Z,4.88
2022-11-08T07:22:59.101Z,4.95
2022-11-08T07:25:27.183Z,4.80
2022-11-08T07:28:01.508Z,5.30
2022-11-08T07:30:29.185Z,5.82
2022-11-08T07:32:57.095Z,6.05
2022-11-08T07:35:25.190Z,5.35
2022-11-08T07:37:52.044Z,5.70
2022-11-08T07:40:19.058Z,4.68
2022-11-08T07:43:13.564Z,4.88
2022-11-08T07:45:32.841Z,5.82
2022-11-08T07:48:11.035Z,7.82
2022-11-08T07:50:39.999Z,5.63
2022-11-08T07:53:06.886Z,4.82
2022-11-08T07:55:36.296Z,4.85
2022-11-08T07:58:03.753Z,9.80
2022-11-08T08:00:31.708Z,14.77
2022-11-08T08:03:02.790Z,30.83
2022-11-08T08:05:35.042Z,28.67
2022-11-08T08:08:02.517Z,28.98
2022-11-08T08:10:30.380Z,16.40
2022-11-08T08:12:58.002Z,8.88
2022-11-08T08:15:25.829Z,8.38
2022-11-08T08:17:52.685Z,6.13
2022-11-08T08:20:19.618Z,9.13
2022-11-08T08:22:51.384Z,7.70
2022-11-08T08:25:19.267Z,7.15
2022-11-08T08:27:54.768Z,4.95
2022-11-08T08:30:22.879Z,5.40
2022-11-08T08:33:02.563Z,6.38
2022-11-08T08:35:38.148Z,5.82
2022-11-08T08:38:06.552Z,7.15
2022-11-08T08:40:34.359Z,4.30
2022-11-08T08:43:03.492Z,5.57
2022-11-08T08:45:34.988Z,5.43
2022-11-08T08:48:02.316Z,4.43
2022-11-08T08:50:30.971Z,4.80
2022-11-08T08:52:59.579Z,5.13
2022-11-08T08:55:27.491Z,4.13
2022-11-08T08:57:54.800Z,4.82
2022-11-08T09:03:10.573Z,5.18
2022-11-08T09:05:38.196Z,4.25
2022-11-08T09:08:05.203Z,5.55
2022-11-08T09:10:32.058Z,5.45
2022-11-08T09:13:01.231Z,4.95
2022-11-08T09:15:28.152Z,4.32
2022-11-08T09:17:55.088Z,5.10
2022-11-08T09:20:22.786Z,4.65
2022-11-08T09:22:49.797Z,3.55
2022-11-08T09:25:16.712Z,3.60
2022-11-08T09:27:43.603Z,3.97
2022-11-08T09:30:11.372Z,4.28
2022-11-08T09:33:05.640Z,4.03
2022-11-08T09:35:25.175Z,4.38
2022-11-08T09:37:55.791Z,4.03
2022-11-08T09:40:31.374Z,3.75
2022-11-08T09:43:24.558Z,4.30
2022-11-08T09:45:53.744Z,3.53
2022-11-08T09:48:30.180Z,4.38
2022-11-08T09:50:59.376Z,3.55
2022-11-08T09:54:04.567Z,3.40
2022-11-08T09:56:32.912Z,4.97
2022-11-08T09:59:13.768Z,4.30
2022-11-08T10:01:40.991Z,5.40
2022-11-08T10:04:19.524Z,4.90
2022-11-08T10:07:14.878Z,4.28
2022-11-08T10:10:20.172Z,4.50
2022-11-08T10:13:05.657Z,4.75
2022-11-08T10:15:55.719Z,4.93
2022-11-08T10:18:31.921Z,6.30
2022-11-08T10:21:35.879Z,6.03
2022-11-08T10:24:25.045Z,5.35
2022-11-08T10:26:55.337Z,4.93
2022-11-08T10:29:43.585Z,5.15
2022-11-08T10:32:30.376Z,4.72
2022-11-08T10:35:41.483Z,4.72
2022-11-08T10:38:19.942Z,6.57
2022-11-08T10:41:04.347Z,5.03
2022-11-08T10:43:40.751Z,4.70
2022-11-08T10:46:47.496Z,4.10
2022-11-08T10:49:28.453Z,4.88
2022-11-08T10:52:13.017Z,4.07
2022-11-08T10:54:56.704Z,4.47
2022-11-08T10:57:38.831Z,4.55
2022-11-08T11:00:29.319Z,3.88
2022-11-08T11:05:25.241Z,4.53
2022-11-08T11:08:02.036Z,4.10
2022-11-08T11:10:36.212Z,4.72
2022-11-08T11:13:06.674Z,5.53
2022-11-08T11:18:23.751Z,3.95
2022-11-08T11:21:01.129Z,4.45
2022-11-08T11:23:40.956Z,4.35
2022-11-08T11:26:17.507Z,3.88
2022-11-08T11:29:15.616Z,4.68
2022-11-08T11:31:48.206Z,3.97
2022-11-08T11:34:18.110Z,4.72
2022-11-08T11:36:50.724Z,4.15
2022-11-08T11:39:28.707Z,4.95
2022-11-08T11:42:17.784Z,7.75
2022-11-08T11:45:06.499Z,5.28
2022-11-08T11:47:57.790Z,5.05
2022-11-08T11:50:36.965Z,4.18
2022-11-08T11:53:19.273Z,5.60
2022-11-08T11:56:05.157Z,4.43
2022-11-08T11:58:56.129Z,5.35
2022-11-08T12:01:38.922Z,4.32
2022-11-08T12:04:36.109Z,4.75
2022-11-08T12:07:28.409Z,5.97
2022-11-08T12:10:07.205Z,5.60
2022-11-08T12:13:10.874Z,5.68
2022-11-08T12:15:51.396Z,5.40
2022-11-08T12:21:27.735Z,5.85
2022-11-08T12:24:09.460Z,4.47
2022-11-08T12:26:53.590Z,3.90
2022-11-08T12:29:51.329Z,5.20
2022-11-08T12:32:27.064Z,4.28
2022-11-08T12:35:12.715Z,4.78
2022-11-08T12:37:42.573Z,5.00
2022-11-08T12:40:15.274Z,4.40
2022-11-08T12:42:54.020Z,6.95
2022-11-08T12:45:26.622Z,4.65
2022-11-08T12:47:57.131Z,5.55
2022-11-08T12:50:48.011Z,6.00
2022-11-08T12:53:34.278Z,5.13
2022-11-08T12:56:04.331Z,6.82
2022-11-08T12:58:39.579Z,6.03
2022-11-08T13:01:11.584Z,5.70
2022-11-08T13:03:49.243Z,6.15
2022-11-08T13:06:40.067Z,5.40
2022-11-08T13:09:32.024Z,5.90
2022-11-08T13:12:04.809Z,6.47
2022-11-08T13:14:37.179Z,6.43
2022-11-08T13:17:16.352Z,4.97
2022-11-08T13:19:51.969Z,5.90
2022-11-08T13:22:33.572Z,6.50
2022-11-08T13:25:01.580Z,5.90
2022-11-08T13:27:37.055Z,6.65
2022-11-08T13:30:15.870Z,6.60
2022-11-08T13:33:26.747Z,6.40
2022-11-08T13:36:22.379Z,6.03
2022-11-08T13:39:18.800Z,5.80
2022-11-08T13:42:13.637Z,5.65
2022-11-08T13:44:55.640Z,5.05
2022-11-08T13:47:34.962Z,5.85
2022-11-08T13:50:33.875Z,6.68
2022-11-08T13:53:20.831Z,6.97
2022-11-08T13:55:53.742Z,7.07
2022-11-08T13:58:44.538Z,5.97
2022-11-08T14:01:23.799Z,5.97
2022-11-08T14:03:50.715Z,6.80
2022-11-08T14:06:38.092Z,5.40
2022-11-08T14:09:33.591Z,6.45
2022-11-08T14:12:19.393Z,5.93
2022-11-08T14:15:00.969Z,5.38
2022-11-08T14:17:52.279Z,6.13
2022-11-08T14:20:19.198Z,6.38
2022-11-08T14:22:50.082Z,6.22
2022-11-08T14:25:23.668Z,5.53
2022-11-08T14:27:50.631Z,5.85
2022-11-08T14:30:20.815Z,4.63
2022-11-08T14:32:48.000Z,5.40
2022-11-08T14:35:25.805Z,5.43
2022-11-08T14:37:55.584Z,6.20
2022-11-08T14:40:27.497Z,5.88
2022-11-08T14:42:57.966Z,4.72
2022-11-08T14:48:04.478Z,5.53
2022-11-08T14:50:33.786Z,6.05
2022-11-08T14:53:27.790Z,5.72
2022-11-08T14:56:17.645Z,6.38
2022-11-08T14:58:45.361Z,6.93
2022-11-08T15:01:13.785Z,7.28
2022-11-08T15:03:47.224Z,6.60
2022-11-08T15:06:14.609Z,6.53
2022-11-08T15:08:53.184Z,6.93
2022-11-08T15:11:39.428Z,6.03
2022-11-08T15:14:17.082Z,7.13
2022-11-08T15:16:47.439Z,6.47
2022-11-08T15:19:39.074Z,7.03
2022-11-08T15:22:26.312Z,6.50
2022-11-08T15:25:32.405Z,6.93
2022-11-08T15:28:16.099Z,6.85
2022-11-08T15:30:44.188Z,7.32
2022-11-08T15:33:25.074Z,7.15
2022-11-08T15:35:52.437Z,8.43
2022-11-08T15:38:35.033Z,7.57
2022-11-08T15:41:05.250Z,7.47
2022-11-08T15:43:32.072Z,8.32
2022-11-08T15:46:03.709Z,10.23
2022-11-08T15:48:31.716Z,9.68
2022-11-08T15:50:59.040Z,11.23
2022-11-08T15:53:27.268Z,10.48
2022-11-08T15:56:04.805Z,11.15
2022-11-08T15:58:37.724Z,13.20
2022-11-08T16:01:05.481Z,11.55
2022-11-08T16:03:34.699Z,10.48
2022-11-08T16:06:01.571Z,12.18
2022-11-08T16:08:28.634Z,12.25
2022-11-08T16:11:00.212Z,12.25
2022-11-08T16:13:28.520Z,14.57
2022-11-08T16:15:56.410Z,13.20
2022-11-08T16:18:23.793Z,13.60
2022-11-08T16:20:50.849Z,12.23
2022-11-08T16:23:18.103Z,12.35
2022-11-08T16:25:50.288Z,11.02
2022-11-08T16:28:38.657Z,11.40
2022-11-08T16:31:08.024Z,12.20
2022-11-08T16:33:35.614Z,11.85
2022-11-08T16:36:09.641Z,10.45
2022-11-08T16:38:37.999Z,12.90
2022-11-08T16:41:05.568Z,13.55
2022-11-08T16:43:32.702Z,14.52
2022-11-08T16:46:06.294Z,14.00
2022-11-08T16:48:36.480Z,12.77
2022-11-08T16:51:06.021Z,12.13
2022-11-08T16:53:33.180Z,12.07
2022-11-08T16:56:00.257Z,11.73
2022-11-08T16:58:30.350Z,11.90
2022-11-08T17:00:57.694Z,13.77
2022-11-08T17:03:29.554Z,13.20
2022-11-08T17:05:57.218Z,14.90
2022-11-08T17:08:25.081Z,16.02
2022-11-08T17:10:53.036Z,14.68
2022-11-08T17:13:20.910Z,14.85
2022-11-08T17:15:49.238Z,14.85
2022-11-08T17:18:21.356Z,15.65
2022-11-08T17:20:48.719Z,15.48
2022-11-08T17:23:16.420Z,16.65
2022-11-08T17:25:44.516Z,16.00
2022-11-08T17:28:12.726Z,13.85
2022-11-08T17:30:44.530Z,14.43
2022-11-08T17:33:12.987Z,14.75
2022-11-08T17:35:44.126Z,14.63
2022-11-08T17:38:12.169Z,14.77
2022-11-08T17:40:39.203Z,16.35
2022-11-08T17:43:06.105Z,15.05
2022-11-08T17:45:33.060Z,15.23
2022-11-08T17:47:59.951Z,14.68
2022-11-08T17:50:26.809Z,15.88
2022-11-08T17:52:54.677Z,13.77
2022-11-08T17:55:21.663Z,14.65
2022-11-08T17:57:48.468Z,14.57
2022-11-08T18:00:16.379Z,13.55
2022-11-08T18:02:45.600Z,13.80
2022-11-08T18:05:12.452Z,14.10
2022-11-08T18:07:40.083Z,15.20
2022-11-08T18:10:08.034Z,15.27
2022-11-08T18:12:35.567Z,14.45
2022-11-08T18:15:03.831Z,14.05
2022-11-08T18:17:30.842Z,16.17
2022-11-08T18:19:57.754Z,16.58
2022-11-08T18:22:24.742Z,16.10
2022-11-08T18:24:51.629Z,14.27
2022-11-08T18:27:18.881Z,15.45
2022-11-08T18:29:45.766Z,13.90
2022-11-08T18:32:12.567Z,16.52
2022-11-08T18:34:39.490Z,14.95
2022-11-08T18:37:06.436Z,15.00
2022-11-08T18:39:33.306Z,14.85
2022-11-08T18:42:00.173Z,17.10
2022-11-08T18:44:27.014Z,14.20
2022-11-08T18:46:53.904Z,14.05
2022-11-08T18:49:20.803Z,13.13
2022-11-08T18:51:52.054Z,13.35
2022-11-08T18:54:19.984Z,13.45
2022-11-08T18:56:46.907Z,14.27
2022-11-08T18:59:14.289Z,15.75
2022-11-08T19:01:41.342Z,16.23
2022-11-08T19:04:08.333Z,14.52
2022-11-08T19:06:35.364Z,15.43
2022-11-08T19:09:02.418Z,15.15
2022-11-08T19:11:30.602Z,13.40
2022-11-08T19:13:58.250Z,14.63
2022-11-08T19:16:25.154Z,14.95
2022-11-08T19:18:52.032Z,15.35
2022-11-08T19:21:24.459Z,15.77
2022-11-08T19:23:51.918Z,14.25
2022-11-08T19:26:23.751Z,13.65
2022-11-08T19:28:51.380Z,14.52
2022-11-08T19:31:19.979Z,14.25
2022-11-08T19:33:48.147Z,12.50
2022-11-08T19:36:17.183Z,13.13
2022-11-08T19:38:44.684Z,13.02
2022-11-08T19:41:13.877Z,13.90
2022-11-08T19:43:42.537Z,11.63
2022-11-08T19:46:13.285Z,11.73
2022-11-08T19:48:41.874Z,10.35
2022-11-08T19:51:13.557Z,10.38
2022-11-08T19:53:40.917Z,12.95
2022-11-08T19:56:09.954Z,10.45
2022-11-08T19:58:38.110Z,11.60
2022-11-08T20:01:40.212Z,11.98
2022-11-08T20:04:09.910Z,9.90
2022-11-08T20:06:37.641Z,9.77
2022-11-08T20:09:05.420Z,10.77
2022-11-08T20:11:35.790Z,9.40
2022-11-08T20:14:04.320Z,9.70
2022-11-08T20:16:35.840Z,11.88
2022-11-08T20:19:06.064Z,8.30
2022-11-08T20:21:33.017Z,9.63
2022-11-08T20:24:02.697Z,13.77
2022-11-08T20:26:29.688Z,10.13
2022-11-08T20:28:57.395Z,7.38
2022-11-08T20:31:25.626Z,7.70
2022-11-08T20:33:53.991Z,7.88
2022-11-08T20:36:23.252Z,7.50
2022-11-08T20:38:54.399Z,8.60
2022-11-08T20:41:21.321Z,7.60
2022-11-08T20:43:48.201Z,9.30
2022-11-08T20:46:17.515Z,7.95
2022-11-08T20:48:50.533Z,8.15
2022-11-08T20:51:19.408Z,9.20
2022-11-08T20:53:47.094Z,8.27
2022-11-08T20:56:17.090Z,7.82
2022-11-08T20:58:45.876Z,9.50
2022-11-08T21:01:15.218Z,8.52
2022-11-08T21:03:42.777Z,9.18
2022-11-08T21:06:12.383Z,7.07
2022-11-08T21:11:26.572Z,9.52
2022-11-08T21:13:53.510Z,7.78
2022-11-08T21:16:29.951Z,8.10
2022-11-08T21:18:59.373Z,9.88
2022-11-08T21:21:27.011Z,8.93
2022-11-08T21:23:54.610Z,9.80
2022-11-08T21:26:24.686Z,8.02
2022-11-08T21:28:52.348Z,7.32
2022-11-08T21:31:19.662Z,7.15
2022-11-08T21:33:46.600Z,7.63
2022-11-08T21:36:13.957Z,7.60
2022-11-08T21:38:41.046Z,8.05
2022-11-08T21:41:10.063Z,7.53
2022-11-08T21:43:39.057Z,6.63
2022-11-08T21:46:12.921Z,6.68
2022-11-08T21:48:39.830Z,8.35
2022-11-08T21:51:06.785Z,7.05
2022-11-08T21:53:33.743Z,6.22
2022-11-08T21:56:03.321Z,7.88
2022-11-08T21:58:30.423Z,7.73
2022-11-08T22:00:59.946Z,7.07
2022-11-08T22:03:26.882Z,7.23
2022-11-08T22:05:53.890Z,7.07
2022-11-08T22:08:21.073Z,5.57
2022-11-08T22:10:48.076Z,7.20
2022-11-08T22:13:15.022Z,6.60
2022-11-08T22:15:43.223Z,7.93
2022-11-08T22:18:22.660Z,8.13
2022-11-08T22:21:15.730Z,6.85
2022-11-08T22:23:42.517Z,7.60
2022-11-08T22:26:12.568Z,7.80
2022-11-08T22:28:39.405Z,7.43
2022-11-08T22:31:06.286Z,7.05
2022-11-08T22:33:33.126Z,6.43
2022-11-08T22:35:59.998Z,6.97
2022-11-08T22:38:26.775Z,7.20
2022-11-08T22:40:53.616Z,8.23
2022-11-08T22:43:20.440Z,8.52
2022-11-08T22:45:47.271Z,8.30
2022-11-08T22:48:14.043Z,7.65
2022-11-08T22:50:40.880Z,9.93
2022-11-08T22:53:08.249Z,7.53
2022-11-08T22:55:35.381Z,9.68
2022-11-08T22:58:02.510Z,8.40
2022-11-08T23:00:30.124Z,10.20
2022-11-08T23:02:57.573Z,8.23
2022-11-08T23:05:24.397Z,8.13
2022-11-08T23:07:51.285Z,7.70
2022-11-08T23:10:18.161Z,7.70
2022-11-08T23:13:03.779Z,9.25
2022-11-08T23:15:53.252Z,9.20
2022-11-08T23:18:21.143Z,9.95
2022-11-08T23:21:07.123Z,7.65
2022-11-08T23:23:52.656Z,8.77
2022-11-08T23:26:39.429Z,8.02
2022-11-08T23:29:24.777Z,10.30
2022-11-08T23:31:55.079Z,9.30
2022-11-08T23:34:22.437Z,8.15
2022-11-08T23:36:49.283Z,8.10
2022-11-08T23:39:16.121Z,7.28
2022-11-08T23:42:01.392Z,8.35
2022-11-08T23:44:28.309Z,7.95
2022-11-08T23:46:56.406Z,7.82
2022-11-08T23:49:23.576Z,7.40
2022-11-08T23:51:50.704Z,6.72
2022-11-08T23:54:18.064Z,8.50
2022-11-08T23:56:45.489Z,7.93
2022-11-08T23:59:13.740Z,8.07
